Time;durP1;ratioP1;P1;durP2;ratioP2;P2;SDS_P1;SDS_P2;PMS_P1;PMS_P2;Temp;Humidity;BMP_temperature;BMP_pressure;BME280_temperature;BME280_humidity;BME280_pressure;Samples;Min_cycle;Max_cycle;Signal;HPM_P1;HPM_P2
2022/05/17 00:01:06;;;;;;;7.45;4.82;;;;;;;13.90;92.87;97618.31;5064376;28;20060;-82
2022/05/17 00:03:32;;;;;;;10.65;5.13;;;;;;;13.85;93.61;97617.78;5055359;28;20090;-82
2022/05/17 00:05:57;;;;;;;8.00;5.35;;;;;;;13.77;94.27;97609.44;5073706;28;20482;-81
2022/05/17 00:08:23;;;;;;;8.50;4.97;;;;;;;13.73;95.22;97609.75;5052759;28;20123;-82
2022/05/17 00:10:49;;;;;;;14.55;5.20;;;;;;;13.72;96.61;97606.19;5056822;28;20128;-82
2022/05/17 00:13:15;;;;;;;10.32;5.65;;;;;;;13.72;96.94;97600.81;5059155;28;20423;-82
2022/05/17 00:15:47;;;;;;;8.68;5.78;;;;;;;13.65;97.11;97604.97;5058591;28;20112;-82
2022/05/17 00:18:13;;;;;;;8.82;5.63;;;;;;;13.72;96.22;97597.31;5056818;28;20052;-82
2022/05/17 00:20:41;;;;;;;10.07;5.40;;;;;;;13.67;95.38;97594.94;5061218;28;20067;-82
2022/05/17 00:23:07;;;;;;;10.18;5.10;;;;;;;13.74;96.57;97609.66;5056629;28;20487;-83
2022/05/17 00:25:34;;;;;;;8.50;5.10;;;;;;;13.75;97.44;97599.78;5052656;28;20021;-82
2022/05/17 00:28:00;;;;;;;9.95;5.68;;;;;;;13.73;98.03;97599.00;5061079;28;20056;-83
2022/05/17 00:30:26;;;;;;;8.73;5.93;;;;;;;13.63;98.59;97593.44;5087049;28;20581;-83
2022/05/17 00:32:52;;;;;;;16.50;5.80;;;;;;;13.68;98.57;97601.19;5081226;28;20487;-82
2022/05/17 00:35:18;;;;;;;8.15;6.13;;;;;;;13.74;97.99;97600.72;5072304;28;20120;-82
2022/05/17 00:37:43;;;;;;;11.90;6.68;;;;;;;13.76;97.18;97593.41;5084989;28;20024;-83
2022/05/17 00:40:10;;;;;;;12.68;6.72;;;;;;;13.83;96.22;97600.03;5093253;28;20032;-82
2022/05/17 00:42:36;;;;;;;14.35;6.90;;;;;;;13.77;92.89;97589.75;5063588;28;20403;-82
2022/05/17 00:45:03;;;;;;;13.88;6.50;;;;;;;13.81;92.61;97593.94;5069354;28;20028;-82
2022/05/17 00:47:31;;;;;;;10.93;6.30;;;;;;;13.82;92.76;97588.44;5067866;28;20020;-83
2022/05/17 00:50:25;;;;;;;12.20;6.38;;;;;;;13.80;93.01;97586.84;5060826;28;20029;-82
2022/05/17 00:52:56;;;;;;;11.55;5.57;;;;;;;13.78;92.74;97591.47;5073012;28;20111;-83
2022/05/17 00:55:33;;;;;;;8.40;5.75;;;;;;;13.73;93.02;97589.09;5066574;28;20026;-83
2022/05/17 00:58:10;;;;;;;8.85;5.80;;;;;;;13.68;94.75;97599.34;5067980;28;20028;-83
2022/05/17 01:00:39;;;;;;;7.70;5.65;;;;;;;13.44;95.80;97580.50;5089072;28;20468;-82
2022/05/17 01:03:08;;;;;;;8.77;5.40;;;;;;;13.27;97.55;97591.59;5056081;28;20495;-82
2022/05/17 01:05:41;;;;;;;10.77;6.10;;;;;;;13.11;99.62;97596.34;5081107;28;20894;-81
2022/05/17 01:08:08;;;;;;;12.35;6.65;;;;;;;12.94;100.00;97594.84;5064392;28;20415;-82
2022/05/17 01:10:37;;;;;;;13.07;7.88;;;;;;;12.92;100.00;97606.66;5064010;28;20166;-82
2022/05/17 01:15:47;;;;;;;9.40;7.00;;;;;;;12.77;100.00;97586.25;5086514;28;20092;-82
2022/05/17 01:18:13;;;;;;;14.55;6.32;;;;;;;12.63;100.00;97597.09;5067294;28;20052;-82
2022/05/17 01:20:39;;;;;;;10.43;6.85;;;;;;;12.61;100.00;97577.56;5063739;28;20039;-82
2022/05/17 01:23:04;;;;;;;11.07;6.43;;;;;;;12.55;100.00;97586.88;5079851;28;20035;-82
2022/05/17 01:25:30;;;;;;;13.18;6.85;;;;;;;12.46;100.00;97592.88;5081783;28;20123;-82
2022/05/17 01:28:14;;;;;;;12.98;6.80;;;;;;;12.44;100.00;97584.94;5072536;28;20038;-83
2022/05/17 01:30:40;;;;;;;11.05;7.15;;;;;;;12.39;100.00;97589.78;5063974;28;20510;-84
2022/05/17 01:33:05;;;;;;;14.27;7.07;;;;;;;12.28;100.00;97575.38;5055616;28;20032;-83
2022/05/17 01:35:31;;;;;;;13.15;7.60;;;;;;;12.38;100.00;97589.88;5063711;28;20032;-83
2022/05/17 01:37:59;;;;;;;12.27;7.00;;;;;;;12.33;100.00;97586.66;5063784;28;20056;-83
2022/05/17 01:40:26;;;;;;;16.27;7.50;;;;;;;12.31;100.00;97575.16;5073565;28;20038;-83
2022/05/17 01:42:51;;;;;;;11.90;6.97;;;;;;;12.32;100.00;97580.44;5061500;28;20032;-84
2022/05/17 01:45:17;;;;;;;12.23;7.50;;;;;;;12.25;100.00;97579.13;5072127;28;20078;-83
2022/05/17 01:47:43;;;;;;;12.20;6.97;;;;;;;12.24;100.00;97577.38;5058924;28;20024;-83
2022/05/17 01:50:09;;;;;;;14.25;7.15;;;;;;;12.22;100.00;97584.69;5083882;28;20059;-84
2022/05/17 01:52:34;;;;;;;13.85;7.72;;;;;;;12.20;100.00;97567.84;5073278;28;20055;-85
2022/05/17 01:55:00;;;;;;;12.32;6.85;;;;;;;12.22;100.00;97573.97;5061326;28;20463;-83
2022/05/17 01:57:26;;;;;;;11.38;7.32;;;;;;;12.18;100.00;97572.44;5075470;28;20032;-82
2022/05/17 01:59:52;;;;;;;10.98;6.97;;;;;;;12.07;100.00;97575.00;5070847;28;20024;-83
2022/05/17 02:02:17;;;;;;;12.88;7.65;;;;;;;12.11;100.00;97578.34;5063392;28;20060;-84
2022/05/17 02:04:43;;;;;;;12.23;6.65;;;;;;;12.17;100.00;97572.56;5074787;28;20031;-83
2022/05/17 02:07:09;;;;;;;13.75;6.72;;;;;;;12.12;100.00;97570.19;5060173;28;20062;-83
2022/05/17 02:09:34;;;;;;;12.85;6.72;;;;;;;12.18;100.00;97579.66;5089963;28;20032;-83
2022/05/17 02:12:01;;;;;;;9.52;6.15;;;;;;;12.10;100.00;97573.94;5075011;28;20024;-83
2022/05/17 02:14:26;;;;;;;11.07;6.55;;;;;;;12.09;100.00;97578.44;5066417;28;20042;-83
2022/05/17 02:16:52;;;;;;;8.23;6.30;;;;;;;12.02;100.00;97577.16;5054930;28;20032;-83
2022/05/17 02:19:19;;;;;;;16.20;7.85;;;;;;;12.02;100.00;97582.50;5087336;28;20048;-83
2022/05/17 02:21:47;;;;;;;13.05;7.50;;;;;;;11.92;100.00;97570.69;5055616;28;20059;-83
2022/05/17 02:24:13;;;;;;;12.55;7.50;;;;;;;11.98;100.00;97581.00;5058824;28;20063;-83
2022/05/17 02:26:39;;;;;;;17.60;7.50;;;;;;;11.97;100.00;97573.91;5065253;28;20032;-83
2022/05/17 02:29:05;;;;;;;16.13;7.82;;;;;;;11.93;100.00;97573.25;5069448;28;20427;-83
2022/05/17 02:31:31;;;;;;;12.65;7.43;;;;;;;11.88;100.00;97574.50;5063492;28;20028;-83
2022/05/17 02:33:57;;;;;;;11.93;7.40;;;;;;;11.91;100.00;97569.81;5070328;28;20039;-83
2022/05/17 02:36:22;;;;;;;9.55;7.05;;;;;;;11.98;100.00;97578.31;5083639;28;20032;-82
2022/05/17 02:38:49;;;;;;;13.32;6.85;;;;;;;11.88;100.00;97583.41;5069584;28;20031;-82
2022/05/17 02:41:18;;;;;;;13.63;6.95;;;;;;;11.94;100.00;97585.69;5091300;28;20031;-83
2022/05/17 02:43:44;;;;;;;16.52;7.70;;;;;;;11.84;100.00;97573.03;5074845;28;20120;-82
2022/05/17 02:46:10;;;;;;;15.40;7.28;;;;;;;11.87;100.00;97572.81;5073074;28;20020;-83
2022/05/17 02:48:35;;;;;;;10.40;7.10;;;;;;;11.81;100.00;97567.88;5058601;28;20119;-83
2022/05/17 02:51:12;;;;;;;14.88;7.80;;;;;;;11.82;100.00;97577.59;5058515;28;20051;-84
2022/05/17 02:53:38;;;;;;;12.30;7.35;;;;;;;11.89;100.00;97577.13;5088890;28;20039;-86
2022/05/17 02:56:04;;;;;;;14.55;6.97;;;;;;;11.83;100.00;97573.97;5067488;28;20028;-85
2022/05/17 02:58:30;;;;;;;11.50;7.38;;;;;;;11.84;100.00;97575.72;5071225;28;20020;-87
2022/05/17 03:00:55;;;;;;;12.40;7.18;;;;;;;11.82;100.00;97575.78;5084121;28;20474;-87
2022/05/17 03:03:21;;;;;;;10.20;6.97;;;;;;;11.88;100.00;97579.88;5068641;28;20038;-86
2022/05/17 03:05:47;;;;;;;12.07;6.75;;;;;;;11.87;100.00;97578.19;5054996;28;20032;-86
2022/05/17 03:08:12;;;;;;;15.57;7.20;;;;;;;11.90;100.00;97573.44;5055301;28;20439;-85
2022/05/17 03:10:38;;;;;;;11.90;7.15;;;;;;;11.88;100.00;97574.50;5068064;28;20032;-86
2022/05/17 03:13:04;;;;;;;13.02;8.05;;;;;;;11.94;100.00;97579.47;5067029;28;20094;-86
2022/05/17 03:15:29;;;;;;;19.33;7.88;;;;;;;11.76;100.00;97557.44;5068165;28;20032;-86
2022/05/17 03:17:55;;;;;;;12.20;7.90;;;;;;;11.79;100.00;97559.91;5090625;28;20028;-87
2022/05/17 03:20:20;;;;;;;16.65;8.18;;;;;;;11.86;100.00;97577.31;5060085;28;20028;-86
2022/05/17 03:22:46;;;;;;;19.17;7.40;;;;;;;11.90;100.00;97572.63;5068227;28;20055;-81
2022/05/17 03:25:12;;;;;;;22.45;7.95;;;;;;;11.79;100.00;97564.41;5064849;28;20093;-76
2022/05/17 03:27:37;;;;;;;17.08;8.02;;;;;;;11.83;100.00;97564.13;5091329;28;20472;-76
2022/05/17 03:30:04;;;;;;;16.58;8.02;;;;;;;12.13;100.00;97579.09;5090063;28;20028;-76
2022/05/17 03:32:30;;;;;;;29.88;9.90;;;;;;;12.18;100.00;97580.50;5066447;28;20025;-77
2022/05/17 03:34:55;;;;;;;20.35;8.65;;;;;;;12.28;100.00;97589.63;5077314;28;20380;-77
2022/05/17 03:37:21;;;;;;;25.75;8.65;;;;;;;12.37;100.00;97591.69;5090469;28;20028;-80
2022/05/17 03:39:47;;;;;;;22.75;9.32;;;;;;;12.39;100.00;97602.34;5064757;28;20032;-75
2022/05/17 03:42:13;;;;;;;14.65;8.73;;;;;;;12.42;100.00;97600.31;5064022;28;20401;-93
2022/05/17 03:44:39;;;;;;;15.75;9.63;;;;;;;12.42;100.00;97594.94;5062997;28;20028;-91
2022/05/17 03:47:06;;;;;;;20.42;10.15;;;;;;;12.37;100.00;97594.38;5080560;28;20090;-77
2022/05/17 03:49:32;;;;;;;23.48;11.80;;;;;;;12.33;100.00;97603.63;5069388;28;20024;-76
2022/05/17 03:51:57;;;;;;;33.22;13.25;;;;;;;12.42;100.00;97602.13;5069497;28;20032;-75
2022/05/17 03:54:25;;;;;;;24.77;14.10;;;;;;;12.45;100.00;97596.53;5086232;28;20020;-76
2022/05/17 03:56:54;;;;;;;31.02;15.40;;;;;;;12.32;100.00;97601.03;5070615;28;20024;-77
2022/05/17 03:59:19;;;;;;;31.67;15.55;;;;;;;12.16;100.00;97594.97;5073045;28;20110;-78
2022/05/17 04:01:45;;;;;;;24.73;15.32;;;;;;;12.31;100.00;97602.84;5064516;28;20466;-76
2022/05/17 04:04:12;;;;;;;25.35;15.93;;;;;;;12.41;100.00;97600.41;5083972;28;20028;-76
2022/05/17 04:06:37;;;;;;;37.88;19.20;;;;;;;12.42;100.00;97607.50;5072188;28;20055;-76
2022/05/17 04:09:05;;;;;;;35.95;19.27;;;;;;;12.52;100.00;97605.03;5070075;28;20067;-76
2022/05/17 04:11:31;;;;;;;42.13;19.85;;;;;;;12.46;100.00;97607.16;5089875;28;20048;-76
2022/05/17 04:13:57;;;;;;;37.42;19.98;;;;;;;12.59;100.00;97607.19;5069459;28;20020;-76
2022/05/17 04:16:23;;;;;;;44.88;23.05;;;;;;;12.66;100.00;97610.31;5058297;28;20566;-77
2022/05/17 04:18:48;;;;;;;32.92;21.20;;;;;;;12.78;100.00;97606.75;5068710;28;20072;-77
2022/05/17 04:21:14;;;;;;;42.30;21.00;;;;;;;12.76;100.00;97587.22;5075139;28;20020;-77
2022/05/17 04:23:39;;;;;;;33.15;20.55;;;;;;;12.99;98.93;97599.88;5072162;28;20487;-77
2022/05/17 04:26:05;;;;;;;31.85;19.33;;;;;;;13.31;97.63;97603.88;5086011;28;20123;-77
2022/05/17 04:28:30;;;;;;;36.83;20.00;;;;;;;14.05;91.52;97600.16;5052452;28;20039;-77
2022/05/17 04:30:56;;;;;;;36.85;19.35;;;;;;;15.51;82.00;97617.41;5072005;28;20044;-77
2022/05/17 04:33:22;;;;;;;37.00;17.13;;;;;;;16.31;75.14;97627.91;5072643;28;20107;-75
2022/05/17 04:35:48;;;;;;;22.17;15.02;;;;;;;15.71;75.94;97610.41;5080691;28;20392;-77
2022/05/17 04:38:14;;;;;;;108.60;64.93;;;;;;;14.99;81.05;97617.97;5067034;28;20032;-76
2022/05/17 04:40:41;;;;;;;32.38;13.85;;;;;;;14.70;83.37;97603.25;5069523;28;20020;-77
2022/05/17 04:43:08;;;;;;;39.00;16.25;;;;;;;14.68;84.35;97617.78;5089283;28;20491;-77
2022/05/17 04:45:34;;;;;;;26.58;15.35;;;;;;;14.63;84.66;97619.03;5089215;28;20122;-76
2022/05/17 04:47:59;;;;;;;25.73;13.50;;;;;;;14.53;85.03;97607.22;5088964;28;20051;-77
2022/05/17 04:50:26;;;;;;;20.08;11.02;;;;;;;14.53;85.28;97606.38;5068648;28;20028;-77
2022/05/17 04:52:52;;;;;;;21.42;12.55;;;;;;;14.48;85.84;97605.88;5082959;28;20019;-76
2022/05/17 04:55:19;;;;;;;18.13;11.55;;;;;;;14.58;85.46;97609.59;5069100;28;20028;-78
2022/05/17 04:57:45;;;;;;;31.10;13.15;;;;;;;14.77;84.49;97599.09;5071672;28;20066;-79
2022/05/17 05:00:17;;;;;;;39.75;20.63;;;;;;;14.93;84.74;97593.34;5060610;28;20052;-78
2022/05/17 05:02:42;;;;;;;26.55;13.35;;;;;;;15.07;83.15;97595.84;5052092;28;20028;-77
2022/05/17 05:05:08;;;;;;;24.77;12.85;;;;;;;15.11;83.07;97599.97;5052259;28;20395;-78
2022/05/17 05:07:34;;;;;;;36.20;13.55;;;;;;;15.35;81.81;97592.63;5073541;28;20063;-78
2022/05/17 05:09:59;;;;;;;36.60;15.38;;;;;;;15.58;82.09;97588.97;5087551;28;20021;-78
2022/05/17 05:12:25;;;;;;;25.98;14.80;;;;;;;15.81;80.64;97591.66;5068968;28;20044;-78
2022/05/17 05:14:51;;;;;;;31.35;17.45;;;;;;;16.24;80.15;97604.13;5069032;28;20024;-77
2022/05/17 05:17:16;;;;;;;26.63;16.05;;;;;;;17.62;73.38;97585.84;5069124;28;20040;-77
2022/05/17 05:19:42;;;;;;;36.03;15.15;;;;;;;18.98;67.13;97580.38;5073717;28;20041;-78
2022/05/17 05:22:07;;;;;;;35.33;15.00;;;;;;;21.16;57.60;97585.63;5073311;28;20024;-78
2022/05/17 05:24:33;;;;;;;34.25;15.35;;;;;;;22.46;52.72;97575.09;5072299;28;20020;-77
2022/05/17 05:26:59;;;;;;;21.92;12.88;;;;;;;23.78;48.70;97572.97;5073420;28;20029;-78
2022/05/17 05:29:25;;;;;;;21.35;13.80;;;;;;;25.34;45.03;97558.75;5055153;28;20488;-79
2022/05/17 05:31:51;;;;;;;21.27;14.32;;;;;;;26.47;42.13;97562.00;5072013;28;20024;-78
2022/05/17 05:34:17;;;;;;;26.77;14.57;;;;;;;26.78;40.95;97564.44;5055175;28;20128;-78
2022/05/17 05:36:43;;;;;;;29.73;15.00;;;;;;;27.53;39.95;97564.72;5078456;28;20035;-77
2022/05/17 05:39:12;;;;;;;19.50;11.50;;;;;;;25.80;41.32;97564.09;5083428;28;20032;-78
2022/05/17 05:41:37;;;;;;;21.30;12.65;;;;;;;26.16;41.36;97567.75;5055139;28;20032;-79
2022/05/17 05:44:03;;;;;;;14.60;10.15;;;;;;;27.36;39.34;97564.16;5088349;28;20492;-78
2022/05/17 05:46:29;;;;;;;17.42;11.50;;;;;;;28.55;37.30;97562.91;5066462;28;20028;-78
2022/05/17 05:48:55;;;;;;;16.50;10.85;;;;;;;29.86;35.25;97551.16;5092193;28;20028;-78
2022/05/17 05:51:20;;;;;;;15.40;11.00;;;;;;;30.95;34.19;97557.47;5090716;28;20032;-77
2022/05/17 05:53:46;;;;;;;20.23;10.55;;;;;;;31.94;32.41;97546.38;5086764;28;20059;-79
2022/05/17 05:56:12;;;;;;;15.75;9.75;;;;;;;31.88;31.41;97550.06;5091942;28;20116;-78
2022/05/17 05:58:39;;;;;;;21.25;10.02;;;;;;;32.87;30.54;97544.16;5091939;28;20452;-78
2022/05/17 06:01:06;;;;;;;15.10;9.90;;;;;;;33.57;29.31;97543.25;5091691;28;20399;-78
2022/05/17 06:03:32;;;;;;;26.13;10.00;;;;;;;34.29;28.41;97538.28;5079247;28;20059;-77
2022/05/17 06:05:58;;;;;;;18.25;9.90;;;;;;;34.75;27.73;97535.38;5071643;28;20028;-77
2022/05/17 06:08:24;;;;;;;18.10;7.72;;;;;;;34.70;26.86;97528.88;5074103;28;20154;-77
2022/05/17 06:10:49;;;;;;;17.92;7.82;;;;;;;35.00;26.49;97525.81;5072365;28;20055;-79
2022/05/17 06:13:18;;;;;;;17.55;8.02;;;;;;;35.42;26.44;97527.13;5080835;28;20028;-78
2022/05/17 06:15:45;;;;;;;22.00;9.88;;;;;;;35.20;26.79;97529.84;5075527;28;20038;-77
2022/05/17 06:18:11;;;;;;;33.53;10.30;;;;;;;35.67;26.47;97530.38;5091387;28;20048;-77
2022/05/17 06:20:37;;;;;;;26.05;9.63;;;;;;;35.25;26.30;97534.66;5066995;28;20432;-77
2022/05/17 06:23:04;;;;;;;19.15;7.88;;;;;;;34.15;27.70;97532.16;5063803;28;20419;-79
2022/05/17 06:25:31;;;;;;;12.02;7.82;;;;;;;34.11;27.57;97530.13;5091232;28;20028;-79
2022/05/17 06:27:57;;;;;;;12.88;8.23;;;;;;;32.89;29.15;97539.22;5092405;28;20028;-79
2022/05/17 06:30:22;;;;;;;10.60;7.75;;;;;;;33.29;29.21;97542.28;5057628;28;20025;-79
2022/05/17 06:32:48;;;;;;;15.15;8.15;;;;;;;33.61;28.56;97530.63;5074339;28;20020;-79
2022/05/17 06:35:14;;;;;;;22.67;7.53;;;;;;;34.78;27.24;97526.53;5066210;28;20162;-78
2022/05/17 06:37:46;;;;;;;17.88;7.75;;;;;;;35.23;26.67;97523.75;5091040;28;20043;-79
2022/05/17 06:40:13;;;;;;;20.17;9.63;;;;;;;35.86;25.75;97517.84;5059004;28;20059;-78
2022/05/17 06:42:38;;;;;;;13.10;7.43;;;;;;;36.21;25.41;97505.56;5070587;28;20078;-79
2022/05/17 06:45:04;;;;;;;27.30;7.53;;;;;;;36.22;25.72;97522.00;5070850;28;20032;-79
2022/05/17 06:47:30;;;;;;;15.55;7.82;;;;;;;35.77;25.78;97516.59;5072030;28;20032;-79
2022/05/17 06:49:55;;;;;;;16.58;7.47;;;;;;;32.60;28.64;97511.31;5068273;28;20461;-79
2022/05/17 06:52:26;;;;;;;27.02;8.43;;;;;;;33.32;28.25;97516.84;5091629;28;20031;-79
2022/05/17 06:54:51;;;;;;;26.85;8.88;;;;;;;34.42;27.54;97512.16;5074499;28;20032;-79
2022/05/17 06:57:17;;;;;;;32.67;14.80;;;;;;;33.64;28.66;97509.88;5073579;28;20047;-79
2022/05/17 06:59:45;;;;;;;21.15;12.05;;;;;;;32.90;29.13;97515.97;5082297;28;20042;-79
2022/05/17 07:02:11;;;;;;;25.88;13.38;;;;;;;32.96;29.33;97515.03;5082498;28;20085;-79
2022/05/17 07:04:37;;;;;;;31.85;14.32;;;;;;;34.05;27.94;97518.03;5073374;28;20463;-77
2022/05/17 07:07:04;;;;;;;17.10;10.40;;;;;;;33.79;28.65;97511.06;5073672;28;20461;-77
2022/05/17 07:09:30;;;;;;;18.75;8.90;;;;;;;35.29;26.36;97505.22;5090190;28;20069;-77
2022/05/17 07:14:41;;;;;;;15.10;8.90;;;;;;;36.69;25.41;97507.53;5090487;28;20482;-77
2022/05/17 07:17:11;;;;;;;17.40;8.70;;;;;;;36.63;25.67;97520.59;5075438;28;20056;-77
2022/05/17 07:19:37;;;;;;;18.20;7.95;;;;;;;36.36;26.00;97508.53;5061299;28;20085;-77
2022/05/17 07:22:04;;;;;;;14.43;7.03;;;;;;;36.43;26.19;97518.34;5069983;28;20029;-77
2022/05/17 07:24:31;;;;;;;11.00;6.88;;;;;;;35.36;27.27;97511.47;5054618;28;20125;-77
2022/05/17 07:26:58;;;;;;;17.20;6.45;;;;;;;34.80;27.84;97517.94;5083338;28;20031;-77
2022/05/17 07:29:23;;;;;;;11.00;5.78;;;;;;;33.87;28.86;97506.22;5056416;28;20085;-76
2022/05/17 07:31:49;;;;;;;63.50;43.17;;;;;;;33.53;29.37;97508.72;5073746;28;20111;-78
2022/05/17 07:34:16;;;;;;;13.63;6.07;;;;;;;33.59;30.03;97501.41;5063665;28;20039;-77
2022/05/17 07:36:41;;;;;;;11.65;6.32;;;;;;;34.15;28.90;97503.53;5070656;28;20038;-78
2022/05/17 07:39:08;;;;;;;14.55;6.85;;;;;;;32.83;29.96;97510.53;5071004;28;20024;-78
2022/05/17 07:41:34;;;;;;;23.58;8.40;;;;;;;33.05;30.07;97511.69;5054039;28;20393;-77
2022/05/17 07:44:01;;;;;;;13.43;8.57;;;;;;;31.91;31.33;97510.88;5071416;28;20430;-76
2022/05/17 07:46:27;;;;;;;17.27;7.38;;;;;;;32.84;30.62;97508.59;5069739;28;20495;-76
2022/05/17 07:48:52;;;;;;;19.35;7.70;;;;;;;34.62;29.16;97509.81;5070827;28;20020;-76
2022/05/17 07:51:18;;;;;;;20.27;7.15;;;;;;;35.49;27.56;97497.22;5052769;28;20562;-76
2022/05/17 07:53:43;;;;;;;14.60;7.25;;;;;;;35.35;27.43;97493.06;5070440;28;20036;-77
2022/05/17 07:56:09;;;;;;;17.35;8.32;;;;;;;35.95;26.85;97492.34;5089886;28;20032;-77
2022/05/17 07:58:34;;;;;;;21.45;10.30;;;;;;;36.83;25.99;97495.69;5072671;28;20053;-77
2022/05/17 08:01:04;;;;;;;21.33;10.70;;;;;;;37.56;25.03;97485.81;5073455;28;20088;-77
2022/05/17 08:03:30;;;;;;;31.35;13.15;;;;;;;38.25;24.68;97480.91;5089670;28;20038;-76
2022/05/17 08:05:55;;;;;;;25.70;9.73;;;;;;;38.90;23.88;97477.53;5072928;28;20024;-77
2022/05/17 08:08:21;;;;;;;21.83;9.93;;;;;;;38.22;23.94;97467.47;5089807;28;20372;-76
2022/05/17 08:10:47;;;;;;;23.75;12.27;;;;;;;38.03;24.71;97476.59;5089919;28;20028;-76
2022/05/17 08:13:16;;;;;;;21.05;10.43;;;;;;;38.70;23.56;97471.84;5090332;28;20031;-76
2022/05/17 08:15:42;;;;;;;26.17;10.68;;;;;;;38.72;23.96;97480.81;5058904;28;20025;-77
2022/05/17 08:18:08;;;;;;;14.93;9.10;;;;;;;37.80;24.07;97475.06;5052294;28;20173;-76
2022/05/17 08:20:34;;;;;;;20.05;8.25;;;;;;;36.09;25.71;97471.38;5069181;28;20491;-77
2022/05/17 08:23:01;;;;;;;14.60;8.43;;;;;;;35.59;25.91;97464.00;5052429;28;20573;-77
2022/05/17 08:28:11;;;;;;;21.23;9.90;;;;;;;34.79;25.89;97466.22;5087300;28;20100;-76
2022/05/17 08:30:37;;;;;;;18.45;9.10;;;;;;;35.73;25.55;97462.53;5076436;28;20471;-76
2022/05/17 08:33:16;;;;;;;22.15;9.27;;;;;;;37.39;24.49;97462.75;5069309;28;20017;-76
2022/05/17 08:35:51;;;;;;;19.23;10.70;;;;;;;37.55;23.41;97453.41;5087042;28;20058;-76
2022/05/17 08:38:22;;;;;;;19.52;10.77;;;;;;;39.17;22.74;97454.88;5052478;28;20029;-76
2022/05/17 08:41:06;;;;;;;;;;;;;;;36.97;22.50;97442.28;5062697;28;20062;-78
2022/05/17 08:43:59;;;;;;;34.97;10.40;;;;;;;38.54;21.92;97444.97;5090232;28;19931;-77
2022/05/17 08:46:44;;;;;;;16.60;8.63;;;;;;;39.72;21.19;97445.63;5070535;28;20046;-77
2022/05/17 08:49:19;;;;;;;7.13;4.30;;;;;;;39.12;18.83;97428.84;5102732;28;20028;-78
2022/05/17 08:51:55;;;;;;;6.57;4.40;;;;;;;39.16;19.66;97424.38;5090726;28;20024;-78
2022/05/17 08:54:27;;;;;;;13.27;4.13;;;;;;;38.87;20.28;97422.13;5087485;28;20059;-78
2022/05/17 08:57:02;;;;;;;8.13;3.35;;;;;;;38.75;20.53;97427.13;5068872;28;20058;-78
2022/05/17 08:59:28;;;;;;;12.52;3.92;;;;;;;39.45;20.06;97428.28;5056195;28;20043;-79
2022/05/17 09:02:00;;;;;;;10.25;4.95;;;;;;;41.01;18.73;97429.63;5074356;28;20488;-78
2022/05/17 09:04:41;;;;;;;11.20;5.90;;;;;;;41.18;18.47;97429.22;5076173;28;20101;-79
2022/05/17 09:07:13;;;;;;;14.45;6.20;;;;;;;41.30;19.12;97418.44;5092830;28;20112;-78
2022/05/17 09:09:52;;;;;;;6.18;3.90;;;;;;;39.31;20.95;97416.00;5094326;28;20533;-78
2022/05/17 09:12:53;;;;;;;8.73;3.88;;;;;;;38.76;20.92;97425.16;5076259;28;20456;-77
2022/05/17 09:15:19;;;;;;;9.15;4.82;;;;;;;37.94;21.68;97415.66;5067392;28;20028;-77
2022/05/17 09:17:45;;;;;;;18.27;10.73;;;;;;;36.61;23.76;97427.97;5075933;28;20103;-76
2022/05/17 09:20:23;;;;;;;11.65;5.60;;;;;;;36.74;23.22;97423.91;5088342;28;20131;-77
2022/05/17 09:22:50;;;;;;;8.15;3.60;;;;;;;35.74;23.62;97416.88;5072791;28;20032;-77
2022/05/17 09:25:22;;;;;;;7.38;3.75;;;;;;;38.01;21.97;97414.56;5080170;28;20154;-77
2022/05/17 09:27:50;;;;;;;5.35;3.80;;;;;;;39.39;21.19;97412.59;5075902;28;20423;-81
2022/05/17 09:30:22;;;;;;;9.18;4.18;;;;;;;40.57;20.73;97418.44;5076150;28;20054;-82
2022/05/17 09:32:48;;;;;;;10.77;4.53;;;;;;;40.94;20.41;97410.34;5106096;28;20491;-82
2022/05/17 09:35:20;;;;;;;7.85;3.90;;;;;;;40.98;19.79;97414.22;5092555;28;20103;-82
2022/05/17 09:37:51;;;;;;;6.57;3.90;;;;;;;41.18;20.10;97403.94;5071835;28;20028;-83
2022/05/17 09:40:23;;;;;;;7.55;3.88;;;;;;;42.01;19.00;97402.56;5085094;28;20111;-83
2022/05/17 09:42:58;;;;;;;7.72;3.70;;;;;;;40.07;20.49;97397.88;5092995;28;20039;-83
2022/05/17 09:46:01;;;;;;;8.95;3.40;;;;;;;40.20;19.76;97390.84;5088777;28;20171;-83
2022/05/17 09:52:32;;;;;;;3.50;2.90;;;;;;;39.65;19.94;97389.03;5090072;28;20112;-83
2022/05/17 09:54:31;;;;;;;11.63;4.03;;;;;;;40.65;20.29;97381.31;5092133;28;20023;-83
2022/05/17 09:57:23;;;;;;;13.27;4.13;;;;;;;41.13;20.22;97387.16;5070888;28;20409;-82
2022/05/17 09:59:52;;;;;;;13.38;5.57;;;;;;;41.38;19.67;97381.34;5063061;28;20423;-83
2022/05/17 10:02:24;;;;;;;8.77;5.63;;;;;;;41.82;19.67;97378.31;5091475;28;20490;-84
2022/05/17 10:04:50;;;;;;;6.88;3.40;;;;;;;41.43;19.33;97370.03;5091569;28;20027;-84
2022/05/17 10:07:18;;;;;;;6.07;3.25;;;;;;;41.56;19.27;97366.53;5063859;28;20025;-84
2022/05/17 10:09:44;;;;;;;6.43;3.50;;;;;;;40.75;19.56;97369.19;5082401;28;20019;-84
2022/05/17 10:12:42;;;;;;;7.00;3.13;;;;;;;41.53;19.17;97365.13;5089998;28;20445;-83
2022/05/17 10:15:10;;;;;;;9.10;4.10;;;;;;;41.26;18.76;97363.97;5037864;28;20036;-84
2022/05/17 10:17:56;;;;;;;5.18;3.00;;;;;;;39.71;20.21;97354.31;5057472;28;20021;-84
2022/05/17 10:20:36;;;;;;;6.43;3.10;;;;;;;39.51;20.59;97352.38;5070678;28;20138;-84
2022/05/17 10:23:08;;;;;;;6.72;3.10;;;;;;;40.17;20.44;97365.34;5071396;28;20035;-84
2022/05/17 10:25:50;;;;;;;8.20;3.03;;;;;;;41.88;19.37;97349.00;5091799;28;20028;-85
2022/05/17 10:28:23;;;;;;;9.02;2.95;;;;;;;42.87;18.39;97345.06;5074755;28;20043;-85
2022/05/17 10:30:54;;;;;;;13.85;3.22;;;;;;;42.35;18.67;97342.50;5091520;28;20027;-85
2022/05/17 10:33:21;;;;;;;;;;;;;;;41.40;18.84;97325.69;5077810;28;20024;-84
2022/05/17 10:35:59;;;;;;;9.10;3.10;;;;;;;42.38;18.81;97342.72;5061717;28;19908;-84
2022/05/17 10:38:29;;;;;;;7.55;3.60;;;;;;;42.42;18.90;97329.75;5070920;28;20021;-85
2022/05/17 10:40:54;;;;;;;6.03;3.20;;;;;;;40.94;19.78;97331.72;5054208;28;20055;-85
2022/05/17 10:43:25;;;;;;;9.90;3.10;;;;;;;39.21;20.61;97320.75;5068758;28;20067;-84
2022/05/17 10:46:11;;;;;;;10.93;4.43;;;;;;;39.25;20.04;97322.75;5092146;28;20031;-85
2022/05/17 10:48:58;;;;;;;4.45;3.10;;;;;;;38.31;21.20;97317.66;5075575;28;20512;-84
2022/05/17 10:51:25;;;;;;;6.90;3.30;;;;;;;38.81;21.36;97316.06;5070480;28;20097;-84
2022/05/17 10:54:08;;;;;;;6.47;3.03;;;;;;;39.28;20.35;97304.56;5074812;28;20030;-82
2022/05/17 10:56:34;;;;;;;6.40;2.97;;;;;;;39.19;20.86;97309.03;5067029;28;20024;-83
2022/05/17 10:59:31;;;;;;;4.47;2.83;;;;;;;40.87;18.80;97300.31;5077905;28;20123;-84
2022/05/17 11:02:13;;;;;;;6.22;3.17;;;;;;;40.90;19.49;97304.50;5086289;28;20031;-84
2022/05/17 11:05:14;;;;;;;;;;;;;;;41.99;18.65;97305.59;5092137;28;20032;-85
2022/05/17 11:07:54;;;;;;;6.95;3.28;;;;;;;41.93;18.13;97296.34;5052990;28;19934;-84
2022/05/17 11:11:01;;;;;;;9.80;3.33;;;;;;;42.43;18.22;97291.16;5081558;28;20585;-82
2022/05/17 11:13:40;;;;;;;11.63;3.60;;;;;;;42.21;18.31;97288.16;5085728;28;20032;-82
2022/05/17 11:16:24;;;;;;;6.05;2.70;;;;;;;42.64;17.87;97276.47;5075962;28;20111;-84
2022/05/17 11:18:54;;;;;;;10.98;3.70;;;;;;;40.36;19.23;97263.38;5067263;28;20051;-83
2022/05/17 11:21:43;;;;;;;11.23;3.22;;;;;;;40.86;19.35;97264.94;5075639;28;20059;-84
2022/05/17 11:24:14;;;;;;;6.90;3.65;;;;;;;39.86;19.92;97269.31;5082992;28;20039;-83
2022/05/17 11:27:18;;;;;;;5.10;3.00;;;;;;;40.15;20.15;97272.25;5091413;28;20028;-83
2022/05/17 11:29:56;;;;;;;4.65;3.05;;;;;;;40.34;19.56;97256.41;5032983;28;20060;-83
2022/05/17 11:32:24;;;;;;;4.03;2.78;;;;;;;39.81;19.91;97258.16;5085797;28;20040;-82
2022/05/17 11:34:50;;;;;;;4.35;3.70;;;;;;;40.30;20.03;97244.09;5086339;28;20059;-82
2022/05/17 11:37:38;;;;;;;10.68;3.08;;;;;;;39.25;19.63;97244.38;5089985;28;20042;-81
2022/05/17 11:40:05;;;;;;;6.50;3.40;;;;;;;39.77;19.95;97248.63;5081734;28;20036;-82
2022/05/17 11:42:36;;;;;;;6.53;3.38;;;;;;;41.08;18.97;97236.41;5081476;28;20572;-82
2022/05/17 11:45:49;;;;;;;5.30;3.05;;;;;;;41.40;19.03;97241.41;5054422;28;20044;-82